createdAt,value
2023-04-19T00:00:58.588Z,136.80
2023-04-19T00:01:58.647Z,137.70
2023-04-19T00:02:58.778Z,139.02
2023-04-19T00:03:58.804Z,137.84
2023-04-19T00:04:58.695Z,136.74
2023-04-19T00:05:58.538Z,137.62
2023-04-19T00:06:58.566Z,137.83
2023-04-19T00:07:58.483Z,136.96
2023-04-19T00:08:58.527Z,136.49
2023-04-19T00:09:58.478Z,138.39
2023-04-19T00:10:58.484Z,137.89
2023-04-19T00:11:58.454Z,137.79
2023-04-19T00:12:58.451Z,139.19
2023-04-19T00:13:58.418Z,138.67
2023-04-19T00:14:58.415Z,138.52
2023-04-19T00:15:58.432Z,137.07
2023-04-19T00:16:58.425Z,134.82
2023-04-19T00:17:58.386Z,134.64
2023-04-19T00:18:58.371Z,135.24
2023-04-19T00:19:58.353Z,135.54
2023-04-19T00:20:58.342Z,135.76
2023-04-19T00:21:58.326Z,134.97
2023-04-19T00:22:58.302Z,135.97
2023-04-19T00:23:58.317Z,135.45
2023-04-19T00:24:58.284Z,136.41
2023-04-19T00:25:58.268Z,137.00
2023-04-19T00:26:58.279Z,138.04
2023-04-19T00:27:58.260Z,137.95
2023-04-19T00:28:58.288Z,137.48
2023-04-19T00:29:58.244Z,138.87
2023-04-19T00:30:58.290Z,139.71
2023-04-19T00:31:58.210Z,139.36
2023-04-19T00:32:58.234Z,139.14
2023-04-19T00:33:58.217Z,139.31
2023-04-19T00:34:58.206Z,137.74
2023-04-19T00:35:58.186Z,138.00
2023-04-19T00:36:58.190Z,138.43
2023-04-19T00:37:58.184Z,138.83
2023-04-19T00:38:58.128Z,137.35
2023-04-19T00:39:58.133Z,138.10
2023-04-19T00:40:58.133Z,138.91
2023-04-19T00:41:58.089Z,139.28
2023-04-19T00:42:58.131Z,139.77
2023-04-19T00:43:58.107Z,140.43
2023-04-19T00:44:58.104Z,141.27
2023-04-19T00:45:58.072Z,140.63
2023-04-19T00:46:58.096Z,140.74
2023-04-19T00:47:58.068Z,140.66
2023-04-19T00:48:58.044Z,140.23
2023-04-19T00:49:58.063Z,140.77
2023-04-19T00:50:58.101Z,141.00
2023-04-19T00:51:58.052Z,140.99
2023-04-19T00:52:58.392Z,142.12
2023-04-19T00:53:58.042Z,143.57
2023-04-19T00:54:58.043Z,143.52
2023-04-19T00:55:57.983Z,144.16
2023-04-19T00:56:57.960Z,143.85
2023-04-19T00:57:57.954Z,144.07
2023-04-19T00:58:57.982Z,142.93
2023-04-19T00:59:57.953Z,142.72
2023-04-19T01:00:57.933Z,142.77
2023-04-19T01:01:58.008Z,143.11
2023-04-19T01:02:57.993Z,144.14
2023-04-19T01:03:57.974Z,146.94
2023-04-19T01:04:57.883Z,148.04
2023-04-19T01:05:57.823Z,150.15
2023-04-19T01:06:57.848Z,149.71
2023-04-19T01:07:57.784Z,149.01
2023-04-19T01:08:57.782Z,149.27
2023-04-19T01:09:57.759Z,148.96
2023-04-19T01:10:57.747Z,147.73
2023-04-19T01:11:57.717Z,147.78
2023-04-19T01:12:57.666Z,148.78
2023-04-19T01:13:57.698Z,146.87
2023-04-19T01:14:57.650Z,146.69
2023-04-19T01:15:57.680Z,146.33
2023-04-19T01:16:57.608Z,146.59
2023-04-19T01:17:57.690Z,146.30
2023-04-19T01:18:57.595Z,146.03
2023-04-19T01:19:57.560Z,146.30
2023-04-19T01:20:57.548Z,145.90
2023-04-19T01:21:57.523Z,146.61
2023-04-19T01:22:57.486Z,145.89
2023-04-19T01:23:57.468Z,146.35
2023-04-19T01:24:57.456Z,146.87
2023-04-19T01:25:57.420Z,147.22
2023-04-19T01:26:57.388Z,147.08
2023-04-19T01:27:57.332Z,147.04
2023-04-19T01:28:57.892Z,147.72
2023-04-19T01:29:57.292Z,147.82
2023-04-19T01:30:57.318Z,147.32
2023-04-19T01:31:57.286Z,146.80
2023-04-19T01:32:57.312Z,147.26
2023-04-19T01:33:57.221Z,148.00
2023-04-19T01:34:57.215Z,146.83
2023-04-19T01:35:57.178Z,147.12
2023-04-19T01:36:57.204Z,146.97
2023-04-19T01:37:57.159Z,146.95
2023-04-19T01:38:57.129Z,147.17
2023-04-19T01:39:57.107Z,148.00
2023-04-19T01:40:57.200Z,146.97
2023-04-19T01:41:57.141Z,146.90
2023-04-19T01:42:57.116Z,144.85
2023-04-19T01:43:57.120Z,147.27
2023-04-19T01:44:57.143Z,145.63
2023-04-19T01:45:57.131Z,146.83
2023-04-19T01:46:57.208Z,146.56
2023-04-19T01:47:57.176Z,146.13
2023-04-19T01:48:57.168Z,145.66
2023-04-19T01:49:57.171Z,146.17
2023-04-19T01:50:57.197Z,144.09
2023-04-19T01:51:57.189Z,146.82
2023-04-19T01:52:57.201Z,144.99
2023-04-19T01:53:57.218Z,144.88
2023-04-19T01:54:57.239Z,145.67
2023-04-19T01:55:57.214Z,144.67
2023-04-19T01:56:57.332Z,143.54
2023-04-19T01:57:57.240Z,145.47
2023-04-19T01:58:57.265Z,146.49
2023-04-19T01:59:57.293Z,145.20
2023-04-19T02:00:57.311Z,144.22
2023-04-19T02:01:57.430Z,144.45
2023-04-19T02:02:57.391Z,143.95
2023-04-19T02:03:57.327Z,143.62
2023-04-19T02:04:57.292Z,143.12
2023-04-19T02:05:57.265Z,142.94
2023-04-19T02:06:57.285Z,143.17
2023-04-19T02:07:57.299Z,144.49
2023-04-19T02:08:57.351Z,145.39
2023-04-19T02:09:57.324Z,144.13
2023-04-19T02:10:57.327Z,144.17
2023-04-19T02:11:57.329Z,142.93
2023-04-19T02:12:57.384Z,143.18
2023-04-19T02:13:57.349Z,143.45
2023-04-19T02:14:57.328Z,143.56
2023-04-19T02:15:57.348Z,142.75
2023-04-19T02:16:57.489Z,141.49
2023-04-19T02:17:57.468Z,142.76
2023-04-19T02:18:57.381Z,141.88
2023-04-19T02:19:57.443Z,143.18
2023-04-19T02:20:57.391Z,143.47
2023-04-19T02:21:57.373Z,143.95
2023-04-19T02:22:57.393Z,142.74
2023-04-19T02:23:57.386Z,141.92
2023-04-19T02:24:57.372Z,141.29
2023-04-19T02:25:57.365Z,143.74
2023-04-19T02:26:57.376Z,144.89
2023-04-19T02:27:57.403Z,142.74
2023-04-19T02:28:57.390Z,143.59
2023-04-19T02:29:57.370Z,143.80
2023-04-19T02:30:57.376Z,142.14
2023-04-19T02:31:57.452Z,141.91
2023-04-19T02:32:57.410Z,142.90
2023-04-19T02:33:57.362Z,142.68
2023-04-19T02:34:57.360Z,139.99
2023-04-19T02:35:57.375Z,142.94
2023-04-19T02:36:57.362Z,141.60
2023-04-19T02:37:57.371Z,143.03
2023-04-19T02:38:57.378Z,143.01
2023-04-19T02:39:57.380Z,142.72
2023-04-19T02:40:57.410Z,141.86
2023-04-19T02:41:57.409Z,141.04
2023-04-19T02:42:57.391Z,144.62
2023-04-19T02:43:57.388Z,143.07
2023-04-19T02:44:57.380Z,141.47
2023-04-19T02:45:57.412Z,141.94
2023-04-19T02:46:57.367Z,142.27
2023-04-19T02:47:57.593Z,140.13
2023-04-19T02:48:57.409Z,142.76
2023-04-19T02:49:57.406Z,142.42
2023-04-19T02:50:57.401Z,141.16
2023-04-19T02:51:57.423Z,141.36
2023-04-19T02:52:57.423Z,140.80
2023-04-19T02:53:57.387Z,142.10
2023-04-19T02:54:57.373Z,139.92
2023-04-19T02:55:57.370Z,139.80
2023-04-19T02:56:57.398Z,140.95
2023-04-19T02:57:57.364Z,141.32
2023-04-19T02:58:57.374Z,139.67
2023-04-19T02:59:57.359Z,139.66
2023-04-19T03:00:57.420Z,140.84
2023-04-19T03:01:57.450Z,140.50
2023-04-19T03:02:57.519Z,138.43
2023-04-19T03:03:57.515Z,138.26
2023-04-19T03:04:57.365Z,139.15
2023-04-19T03:05:57.341Z,138.33
2023-04-19T03:06:57.371Z,138.01
2023-04-19T03:07:57.354Z,138.72
2023-04-19T03:08:57.320Z,138.33
2023-04-19T03:09:57.345Z,139.34
2023-04-19T03:10:57.329Z,136.93
2023-04-19T03:11:57.320Z,137.93
2023-04-19T03:12:57.356Z,139.00
2023-04-19T03:13:57.361Z,137.44
2023-04-19T03:14:57.343Z,137.67
2023-04-19T03:15:57.364Z,135.76
2023-04-19T03:16:57.318Z,137.57
2023-04-19T03:17:57.350Z,136.05
2023-04-19T03:18:57.292Z,136.51
2023-04-19T03:19:57.296Z,135.66
2023-04-19T03:20:57.307Z,137.14
2023-04-19T03:21:57.272Z,136.22
2023-04-19T03:22:57.278Z,135.48
2023-04-19T03:23:57.293Z,135.54
2023-04-19T03:24:57.280Z,135.36
2023-04-19T03:25:57.243Z,134.65
2023-04-19T03:26:57.248Z,137.29
2023-04-19T03:27:57.256Z,135.06
2023-04-19T03:28:57.251Z,135.90
2023-04-19T03:29:57.240Z,136.82
2023-04-19T03:30:57.194Z,135.24
2023-04-19T03:31:57.215Z,135.79
2023-04-19T03:32:57.260Z,133.24
2023-04-19T03:33:57.227Z,135.59
2023-04-19T03:34:57.222Z,136.14
2023-04-19T03:35:57.241Z,136.63
2023-04-19T03:36:57.202Z,135.03
2023-04-19T03:37:57.200Z,135.13
2023-04-19T03:38:57.191Z,134.74
2023-04-19T03:39:57.200Z,135.83
2023-04-19T03:40:57.193Z,135.19
2023-04-19T03:41:57.185Z,134.37
2023-04-19T03:42:57.191Z,135.30
2023-04-19T03:43:57.179Z,136.48
2023-04-19T03:44:57.205Z,135.95
2023-04-19T03:45:57.233Z,135.14
2023-04-19T03:46:57.199Z,134.25
2023-04-19T03:47:57.244Z,134.04
2023-04-19T03:48:57.188Z,133.54
2023-04-19T03:49:57.179Z,134.60
2023-04-19T03:50:57.192Z,135.30
2023-04-19T03:51:57.202Z,134.73
2023-04-19T03:52:57.218Z,134.73
2023-04-19T03:53:57.208Z,135.42
2023-04-19T03:54:57.218Z,134.22
2023-04-19T03:55:57.168Z,135.21
2023-04-19T03:56:57.211Z,135.94
2023-04-19T03:57:57.176Z,132.60
2023-04-19T03:58:57.136Z,135.51
2023-04-19T03:59:57.188Z,133.52
2023-04-19T04:00:57.154Z,135.49
2023-04-19T04:01:57.222Z,131.76
2023-04-19T04:02:57.332Z,132.72
2023-04-19T04:03:57.311Z,133.23
2023-04-19T04:04:57.189Z,134.39
2023-04-19T04:05:57.100Z,132.23
2023-04-19T04:06:57.087Z,133.18
2023-04-19T04:07:57.079Z,133.88
2023-04-19T04:08:57.083Z,132.64
2023-04-19T04:09:57.055Z,133.90
2023-04-19T04:10:57.071Z,134.86
2023-04-19T04:11:57.056Z,132.67
2023-04-19T04:12:57.032Z,133.09
2023-04-19T04:13:57.033Z,134.52
2023-04-19T04:14:57.027Z,133.93
2023-04-19T04:15:57.003Z,133.19
2023-04-19T04:16:56.960Z,133.49
2023-04-19T04:17:56.999Z,133.04
2023-04-19T04:18:56.950Z,130.99
2023-04-19T04:19:56.968Z,131.91
2023-04-19T04:20:56.943Z,130.66
2023-04-19T04:21:56.938Z,131.04
2023-04-19T04:22:56.923Z,131.97
2023-04-19T04:23:56.896Z,131.67
2023-04-19T04:24:56.892Z,133.16
2023-04-19T04:25:56.863Z,134.16
2023-04-19T04:26:56.843Z,132.97
2023-04-19T04:27:56.851Z,134.74
2023-04-19T04:28:56.843Z,132.41
2023-04-19T04:29:56.827Z,133.95
2023-04-19T04:30:56.817Z,132.52
2023-04-19T04:31:56.873Z,133.82
2023-04-19T04:32:56.882Z,133.82
2023-04-19T04:33:56.835Z,134.14
2023-04-19T04:34:56.832Z,132.41
2023-04-19T04:35:56.797Z,133.91
2023-04-19T04:36:56.778Z,133.33
2023-04-19T04:37:56.764Z,133.44
2023-04-19T04:38:56.755Z,133.90
2023-04-19T04:39:56.746Z,133.58
2023-04-19T04:40:56.718Z,134.37
2023-04-19T04:41:56.759Z,133.70
2023-04-19T04:42:56.757Z,135.52
2023-04-19T04:44:11.459Z,134.68
2023-04-19T04:44:57.656Z,134.79
2023-04-19T04:45:56.607Z,135.18
2023-04-19T04:46:56.590Z,135.02
2023-04-19T04:47:56.595Z,133.90
2023-04-19T04:48:56.455Z,134.17
2023-04-19T04:49:56.384Z,135.54
2023-04-19T04:50:56.377Z,133.99
2023-04-19T04:51:56.322Z,134.59
2023-04-19T04:52:56.267Z,135.89
2023-04-19T04:53:56.229Z,135.97
2023-04-19T04:54:56.200Z,134.37
2023-04-19T04:55:56.175Z,135.79
2023-04-19T04:56:56.109Z,134.41
2023-04-19T04:57:56.045Z,135.81
2023-04-19T04:58:55.983Z,134.35
2023-04-19T04:59:55.947Z,133.13
2023-04-19T05:01:02.971Z,134.30
2023-04-19T05:01:55.935Z,134.49
2023-04-19T05:02:55.912Z,134.93
2023-04-19T05:03:55.834Z,134.83
2023-04-19T05:04:55.762Z,134.96
2023-04-19T05:05:55.729Z,134.41
2023-04-19T05:06:55.689Z,135.35
2023-04-19T05:07:55.612Z,136.26
2023-04-19T05:08:55.556Z,134.79
2023-04-19T05:09:55.510Z,135.69
2023-04-19T05:10:55.471Z,134.46
2023-04-19T05:11:55.411Z,134.52
2023-04-19T05:12:55.365Z,135.55
2023-04-19T05:13:55.298Z,134.83
2023-04-19T05:14:55.238Z,133.89
2023-04-19T05:15:55.210Z,135.16
2023-04-19T05:16:55.145Z,134.75
2023-04-19T05:17:55.110Z,134.25
2023-04-19T05:18:55.025Z,135.50
2023-04-19T05:19:54.997Z,135.00
2023-04-19T05:20:54.910Z,134.16
2023-04-19T05:21:54.909Z,134.69
2023-04-19T05:22:54.835Z,135.92
2023-04-19T05:23:54.775Z,135.18
2023-04-19T05:24:54.723Z,134.21
2023-04-19T05:25:54.666Z,134.50
2023-04-19T05:26:54.646Z,133.27
2023-04-19T05:27:54.579Z,134.56
2023-04-19T05:28:54.535Z,134.71
2023-04-19T05:29:54.498Z,136.62
2023-04-19T05:30:54.587Z,134.73
2023-04-19T05:31:54.552Z,139.06
2023-04-19T05:32:54.589Z,135.27
2023-04-19T05:33:54.483Z,139.25
2023-04-19T05:34:54.469Z,142.47
2023-04-19T05:35:54.514Z,146.09
2023-04-19T05:36:54.528Z,147.24
2023-04-19T05:37:54.506Z,146.26
2023-04-19T05:38:54.521Z,144.53
2023-04-19T05:39:54.507Z,144.29
2023-04-19T05:40:54.575Z,147.84
2023-04-19T05:41:54.592Z,150.45
2023-04-19T05:42:55.062Z,155.56
2023-04-19T05:43:54.642Z,157.54
2023-04-19T05:44:54.609Z,153.35
2023-04-19T05:46:01.650Z,152.56
2023-04-19T05:46:54.642Z,152.96
2023-04-19T05:47:54.609Z,154.83
2023-04-19T05:48:55.053Z,158.59
2023-04-19T05:49:54.531Z,162.95
2023-04-19T05:50:54.509Z,168.16
2023-04-19T05:51:54.473Z,171.91
2023-04-19T05:52:54.409Z,171.07
2023-04-19T05:53:57.125Z,175.94
2023-04-19T05:54:54.337Z,176.14
2023-04-19T05:55:54.280Z,176.85
2023-04-19T05:56:54.228Z,178.73
2023-04-19T05:57:54.231Z,184.03
2023-04-19T05:58:54.138Z,192.03
2023-04-19T05:59:54.094Z,193.73
2023-04-19T06:00:54.060Z,196.13
2023-04-19T06:01:54.091Z,197.67
2023-04-19T06:02:54.084Z,199.93
2023-04-19T06:03:54.100Z,201.87
2023-04-19T06:04:53.918Z,205.01
2023-04-19T06:05:53.815Z,205.69
2023-04-19T06:06:53.769Z,208.96
2023-04-19T06:07:55.465Z,211.23
2023-04-19T06:08:55.073Z,211.57
2023-04-19T06:09:53.585Z,212.60
2023-04-19T06:10:57.078Z,214.57
2023-04-19T06:11:54.470Z,211.77
2023-04-19T06:12:53.456Z,213.79
2023-04-19T06:13:53.348Z,216.86
2023-04-19T06:14:53.386Z,224.02
2023-04-19T06:15:53.360Z,234.14
2023-04-19T06:16:53.195Z,235.90
2023-04-19T06:17:53.244Z,239.45
2023-04-19T06:18:53.074Z,242.69
2023-04-19T06:19:53.041Z,242.59
2023-04-19T06:20:52.977Z,246.06
2023-04-19T06:21:52.927Z,248.45
2023-04-19T06:22:52.895Z,250.00
2023-04-19T06:23:52.856Z,248.94
2023-04-19T06:24:52.770Z,247.22
2023-04-19T06:25:52.725Z,244.20
2023-04-19T06:26:52.683Z,242.44
2023-04-19T06:27:52.628Z,244.39
2023-04-19T06:28:52.675Z,249.29
2023-04-19T06:29:52.614Z,246.59
2023-04-19T06:30:52.613Z,250.00
2023-04-19T06:31:52.744Z,249.73
2023-04-19T06:32:52.569Z,249.63
2023-04-19T06:33:52.618Z,249.52
2023-04-19T06:34:52.544Z,249.89
2023-04-19T06:35:52.502Z,248.68
2023-04-19T06:36:52.498Z,249.49
2023-04-19T06:37:52.453Z,249.48
2023-04-19T06:38:52.457Z,248.22
2023-04-19T06:39:52.411Z,240.49
2023-04-19T06:40:52.386Z,234.26
2023-04-19T06:41:52.355Z,238.15
2023-04-19T06:42:52.367Z,242.51
2023-04-19T06:43:52.325Z,241.95
2023-04-19T06:44:52.351Z,242.62
2023-04-19T06:45:52.326Z,240.89
2023-04-19T06:46:52.458Z,241.08
2023-04-19T06:47:52.330Z,243.03
2023-04-19T06:48:52.293Z,242.25
2023-04-19T06:49:52.260Z,244.22
2023-04-19T06:50:52.249Z,246.38
2023-04-19T06:51:52.226Z,245.34
2023-04-19T06:52:52.233Z,246.45
2023-04-19T06:53:52.601Z,248.70
2023-04-19T06:54:52.186Z,247.33
2023-04-19T06:55:52.159Z,248.24
2023-04-19T06:56:52.089Z,249.91
2023-04-19T06:57:52.132Z,246.98
2023-04-19T06:58:52.091Z,248.64
2023-04-19T06:59:52.068Z,249.99
2023-04-19T07:00:52.024Z,249.08
2023-04-19T07:01:52.091Z,249.10
2023-04-19T07:02:53.668Z,248.15
2023-04-19T07:03:52.492Z,249.40
2023-04-19T07:04:51.904Z,249.47
2023-04-19T07:05:51.804Z,248.81
2023-04-19T07:06:51.761Z,248.41
2023-04-19T07:07:51.756Z,248.67
2023-04-19T07:08:52.099Z,248.00
2023-04-19T07:09:51.662Z,247.78
2023-04-19T07:10:51.723Z,246.66
2023-04-19T07:11:51.616Z,247.51
2023-04-19T07:12:51.588Z,250.00
2023-04-19T07:13:51.559Z,247.90
2023-04-19T07:14:51.482Z,248.85
2023-04-19T07:15:51.465Z,249.51
2023-04-19T07:16:52.289Z,250.25
2023-04-19T07:17:51.519Z,247.74
2023-04-19T07:18:51.386Z,248.30
2023-04-19T07:19:51.357Z,246.87
2023-04-19T07:20:51.365Z,248.35
2023-04-19T07:21:51.316Z,249.00
2023-04-19T07:22:51.254Z,249.15
2023-04-19T07:23:51.589Z,247.08
2023-04-19T07:24:51.159Z,244.80
2023-04-19T07:25:51.187Z,249.13
2023-04-19T07:26:51.135Z,248.92
2023-04-19T07:27:52.273Z,248.17
2023-04-19T07:28:51.152Z,250.00
2023-04-19T07:29:51.091Z,250.00
2023-04-19T07:30:51.068Z,246.07
2023-04-19T07:31:51.074Z,243.52
2023-04-19T07:32:51.089Z,244.18
2023-04-19T07:33:50.975Z,207.15
2023-04-19T07:34:50.987Z,168.04
2023-04-19T07:35:51.216Z,183.71
2023-04-19T07:36:50.918Z,198.17
2023-04-19T07:37:50.941Z,202.59
2023-04-19T07:38:51.077Z,206.38
2023-04-19T07:39:50.951Z,211.00
2023-04-19T07:40:50.960Z,209.66
2023-04-19T07:41:50.949Z,175.63
2023-04-19T07:42:50.971Z,133.76
2023-04-19T07:43:50.970Z,106.89
2023-04-19T07:44:50.945Z,91.14
2023-04-19T07:45:50.955Z,81.91
2023-04-19T07:46:51.086Z,84.99
2023-04-19T07:47:51.075Z,88.76
2023-04-19T07:48:51.035Z,89.78
2023-04-19T07:49:50.996Z,90.33
2023-04-19T07:50:50.977Z,91.58
2023-04-19T07:51:51.005Z,91.40
2023-04-19T07:52:51.001Z,89.02
2023-04-19T07:53:51.084Z,87.74
2023-04-19T07:54:51.059Z,84.59
2023-04-19T07:55:51.057Z,83.69
2023-04-19T07:56:51.130Z,84.61
2023-04-19T07:57:51.139Z,85.79
2023-04-19T07:59:04.436Z,84.96
2023-04-19T07:59:52.111Z,85.01
2023-04-19T08:00:51.131Z,85.17
2023-04-19T08:01:51.146Z,83.76
2023-04-19T08:02:51.390Z,83.42
2023-04-19T08:03:51.360Z,80.25
2023-04-19T08:04:51.243Z,76.66
2023-04-19T08:05:51.080Z,74.53
2023-04-19T08:06:50.937Z,70.12
2023-04-19T08:07:50.890Z,68.82
2023-04-19T08:08:50.942Z,68.67
2023-04-19T08:09:50.957Z,68.94
2023-04-19T08:10:50.918Z,68.40
2023-04-19T08:11:50.925Z,67.52
2023-04-19T08:14:04.568Z,63.51
2023-04-19T08:15:04.740Z,63.55
2023-04-19T08:17:14.196Z,63.59
2023-04-19T08:17:51.840Z,63.57
2023-04-19T08:18:50.768Z,57.75
2023-04-19T08:19:50.744Z,52.95
2023-04-19T08:20:50.783Z,50.86
2023-04-19T08:21:50.676Z,50.57
2023-04-19T08:22:50.669Z,51.90
2023-04-19T08:23:52.054Z,48.17
2023-04-19T08:24:50.598Z,48.25
2023-04-19T08:25:50.576Z,48.58
2023-04-19T08:26:50.567Z,49.14
2023-04-19T08:27:50.529Z,50.75
2023-04-19T08:28:50.487Z,49.37
2023-04-19T08:29:50.448Z,48.56
2023-04-19T08:30:50.438Z,50.47
2023-04-19T08:31:50.419Z,52.26
2023-04-19T08:32:50.451Z,56.15
2023-04-19T08:33:50.362Z,61.42
2023-04-19T08:34:50.326Z,61.04
2023-04-19T08:35:50.274Z,57.73
2023-04-19T08:36:56.206Z,51.67
2023-04-19T08:37:51.247Z,51.82
2023-04-19T08:39:01.998Z,52.09
2023-04-19T08:39:51.654Z,51.85
2023-04-19T08:40:50.164Z,52.10
2023-04-19T08:41:56.091Z,48.41
2023-04-19T08:42:51.157Z,45.94
2023-04-19T08:43:50.134Z,38.60
2023-04-19T08:45:13.116Z,34.86
2023-04-19T08:45:51.074Z,36.26
2023-04-19T08:46:50.049Z,36.26
2023-04-19T08:47:59.877Z,34.34
2023-04-19T08:48:50.966Z,33.23
2023-04-19T08:49:59.528Z,32.39
2023-04-19T08:51:03.591Z,35.77
2023-04-19T08:51:50.860Z,36.74
2023-04-19T08:52:55.953Z,36.28
2023-04-19T08:53:51.632Z,39.67
2023-04-19T08:54:50.146Z,36.40
2023-04-19T08:56:03.355Z,33.91
2023-04-19T08:56:50.785Z,36.57
2023-04-19T08:57:49.744Z,33.05
2023-04-19T08:59:03.998Z,32.08
2023-04-19T08:59:51.204Z,35.62
2023-04-19T09:00:49.670Z,34.28
2023-04-19T09:01:49.689Z,36.16
2023-04-19T09:02:49.781Z,39.12
2023-04-19T09:04:02.260Z,36.99
2023-04-19T09:04:50.710Z,36.66
2023-04-19T09:05:49.829Z,30.85
2023-04-19T09:06:50.117Z,28.32
2023-04-19T09:07:49.506Z,27.59
2023-04-19T09:08:49.478Z,26.31
2023-04-19T09:10:00.146Z,25.45
2023-04-19T09:10:50.451Z,25.54
2023-04-19T09:11:49.394Z,24.87
2023-04-19T09:12:49.415Z,23.37
2023-04-19T09:13:50.367Z,23.91
2023-04-19T09:15:00.312Z,25.96
2023-04-19T09:15:50.304Z,25.57
2023-04-19T09:16:49.543Z,25.94
2023-04-19T09:17:49.277Z,26.94
2023-04-19T09:18:59.896Z,26.86
2023-04-19T09:19:50.434Z,25.66
2023-04-19T09:20:49.201Z,26.34
2023-04-19T09:21:49.158Z,26.77
2023-04-19T09:22:49.111Z,28.73
2023-04-19T09:23:49.096Z,27.99
2023-04-19T09:26:49.019Z,26.86
2023-04-19T09:27:49.021Z,26.69
2023-04-19T09:28:49.019Z,0.00
2023-04-19T09:29:48.946Z,0.00
2023-04-19T09:30:58.686Z,0.00
2023-04-19T09:31:51.935Z,0.00
2023-04-19T09:32:49.411Z,0.00
2023-04-19T09:33:48.893Z,0.00
2023-04-19T09:34:48.883Z,0.00
2023-04-19T09:35:48.897Z,0.00
2023-04-19T09:36:50.298Z,0.00
2023-04-19T09:38:01.986Z,0.00
2023-04-19T09:38:49.833Z,0.00
2023-04-19T09:39:48.856Z,2.34
2023-04-19T09:40:49.168Z,10.15
2023-04-19T09:41:48.801Z,17.65
2023-04-19T09:45:13.071Z,27.52
2023-04-19T09:45:49.736Z,28.01
2023-04-19T09:46:49.880Z,33.48
2023-04-19T09:47:48.687Z,45.05
2023-04-19T09:48:48.585Z,59.09
2023-04-19T09:49:49.714Z,69.04
2023-04-19T09:50:56.948Z,66.16
2023-04-19T09:51:49.512Z,66.24
2023-04-19T09:52:48.482Z,67.17
2023-04-19T09:53:48.460Z,66.38
2023-04-19T09:54:48.433Z,72.23
2023-04-19T09:55:59.695Z,62.94
2023-04-19T09:56:49.385Z,58.48
2023-04-19T09:57:48.347Z,45.40
2023-04-19T09:58:53.145Z,28.25
2023-04-19T09:59:49.251Z,33.44
2023-04-19T10:00:51.316Z,27.26
2023-04-19T10:01:48.254Z,21.12
2023-04-19T10:02:50.717Z,26.82
2023-04-19T10:03:48.332Z,28.30
2023-04-19T10:05:48.328Z,17.65
2023-04-19T10:07:13.904Z,16.60
2023-04-19T10:07:49.066Z,17.77
2023-04-19T10:08:48.047Z,23.52
2023-04-19T10:09:52.919Z,29.83
2023-04-19T10:10:48.950Z,51.05
2023-04-19T10:11:48.518Z,57.72
2023-04-19T10:13:10.936Z,66.29
2023-04-19T10:13:48.858Z,66.29
2023-04-19T10:14:47.908Z,52.15
2023-04-19T10:15:52.559Z,48.83
2023-04-19T10:16:48.770Z,61.26
2023-04-19T10:17:47.708Z,60.15
2023-04-19T10:18:47.650Z,67.02
2023-04-19T10:19:47.703Z,71.81
2023-04-19T10:20:47.598Z,77.35
2023-04-19T10:21:47.647Z,64.70
2023-04-19T10:22:47.600Z,66.90
2023-04-19T10:23:47.553Z,69.97
2023-04-19T10:24:48.367Z,70.98
2023-04-19T10:25:47.429Z,60.24
2023-04-19T10:26:47.441Z,71.05
2023-04-19T10:27:47.377Z,72.28
2023-04-19T10:28:47.397Z,88.14
2023-04-19T10:29:47.302Z,103.33
2023-04-19T10:30:47.284Z,107.13
2023-04-19T10:31:47.769Z,106.61
2023-04-19T10:32:47.301Z,114.92
2023-04-19T10:33:47.198Z,94.72
2023-04-19T10:34:47.206Z,70.66
2023-04-19T10:35:47.171Z,27.19
2023-04-19T10:36:47.174Z,0.00
2023-04-19T10:37:47.158Z,0.00
2023-04-19T10:38:47.284Z,0.00
2023-04-19T10:39:47.191Z,20.07
2023-04-19T10:40:47.236Z,33.43
2023-04-19T10:41:47.252Z,45.25
2023-04-19T10:42:47.237Z,53.44
2023-04-19T10:43:47.286Z,62.76
2023-04-19T10:44:47.503Z,71.26
2023-04-19T10:45:47.366Z,79.49
2023-04-19T10:46:47.401Z,87.21
2023-04-19T10:47:47.420Z,95.91
2023-04-19T10:48:47.417Z,104.45
2023-04-19T10:49:47.437Z,115.28
2023-04-19T10:50:47.443Z,123.85
2023-04-19T10:51:47.435Z,127.27
2023-04-19T10:52:47.732Z,130.35
2023-04-19T10:53:47.757Z,137.80
2023-04-19T10:54:47.463Z,142.45
2023-04-19T10:55:47.406Z,136.39
2023-04-19T10:56:47.418Z,132.26
2023-04-19T10:57:47.377Z,131.97
2023-04-19T10:58:48.544Z,132.68
2023-04-19T10:59:47.352Z,134.20
2023-04-19T11:00:47.394Z,138.09
2023-04-19T11:01:48.286Z,140.09
2023-04-19T11:02:47.410Z,143.55
2023-04-19T11:03:47.423Z,144.62
2023-04-19T11:04:47.362Z,146.16
2023-04-19T11:05:47.265Z,147.89
2023-04-19T11:06:47.272Z,149.45
2023-04-19T11:07:47.244Z,150.80
2023-04-19T11:08:47.282Z,150.83
2023-04-19T11:09:47.226Z,151.77
2023-04-19T11:10:47.230Z,152.85
2023-04-19T11:11:47.291Z,153.55
2023-04-19T11:12:47.244Z,154.38
2023-04-19T11:13:47.177Z,154.19
2023-04-19T11:14:48.202Z,154.55
2023-04-19T11:15:47.270Z,152.74
2023-04-19T11:16:47.373Z,153.66
2023-04-19T11:17:48.453Z,154.15
2023-04-19T11:18:47.116Z,153.45
2023-04-19T11:19:47.073Z,150.99
2023-04-19T11:20:47.056Z,149.77
2023-04-19T11:21:47.031Z,150.55
2023-04-19T11:22:47.211Z,152.99
2023-04-19T11:23:46.982Z,154.46
2023-04-19T11:24:46.951Z,154.50
2023-04-19T11:25:46.914Z,156.65
2023-04-19T11:26:46.863Z,157.37
2023-04-19T11:27:47.293Z,152.63
2023-04-19T11:28:46.832Z,141.16
2023-04-19T11:29:46.770Z,141.92
2023-04-19T11:30:46.921Z,145.96
2023-04-19T11:31:47.141Z,142.67
2023-04-19T11:32:47.326Z,147.29
2023-04-19T11:33:46.638Z,147.43
2023-04-19T11:34:46.595Z,148.28
2023-04-19T11:35:46.570Z,148.43
2023-04-19T11:36:46.529Z,151.50
2023-04-19T11:37:46.684Z,152.58
2023-04-19T11:38:46.449Z,154.08
2023-04-19T11:39:46.404Z,154.79
2023-04-19T11:40:46.413Z,157.19
2023-04-19T11:41:46.352Z,157.36
2023-04-19T11:42:46.353Z,157.50
2023-04-19T11:43:46.311Z,158.88
2023-04-19T11:44:46.274Z,160.69
2023-04-19T11:45:46.236Z,162.22
2023-04-19T11:46:46.207Z,163.50
2023-04-19T11:47:46.289Z,163.51
2023-04-19T11:48:46.125Z,165.84
2023-04-19T11:49:46.050Z,166.63
2023-04-19T11:50:46.085Z,167.04
2023-04-19T11:51:46.009Z,167.93
2023-04-19T11:52:46.213Z,168.25
2023-04-19T11:53:45.924Z,168.21
2023-04-19T11:54:45.897Z,167.81
2023-04-19T11:55:45.903Z,167.74
2023-04-19T11:56:45.820Z,168.78
2023-04-19T11:57:45.800Z,168.64
2023-04-19T11:58:45.716Z,166.36
2023-04-19T11:59:45.702Z,167.42
2023-04-19T12:00:45.617Z,168.35
2023-04-19T12:01:45.624Z,168.36
2023-04-19T12:02:45.748Z,165.78
2023-04-19T12:03:45.765Z,167.33
2023-04-19T12:04:45.673Z,166.03
2023-04-19T12:05:45.662Z,165.25
2023-04-19T12:06:45.457Z,163.83
2023-04-19T12:07:45.416Z,162.60
2023-04-19T12:08:45.367Z,163.41
2023-04-19T12:09:45.360Z,163.32
2023-04-19T12:10:45.371Z,163.59
2023-04-19T12:11:45.488Z,163.94
2023-04-19T12:12:45.400Z,164.08
2023-04-19T12:13:45.426Z,163.58
2023-04-19T12:14:45.402Z,162.00
2023-04-19T12:15:45.470Z,161.95
2023-04-19T12:16:45.526Z,164.66
2023-04-19T12:17:56.707Z,162.83
2023-04-19T12:18:46.459Z,162.94
2023-04-19T12:19:45.387Z,163.30
2023-04-19T12:20:45.333Z,163.62
2023-04-19T12:21:45.317Z,163.37
2023-04-19T12:22:45.282Z,161.39
2023-04-19T12:23:45.216Z,161.89
2023-04-19T12:24:45.142Z,162.11
2023-04-19T12:25:45.139Z,161.45
2023-04-19T12:26:45.096Z,161.23
2023-04-19T12:27:45.049Z,162.18
2023-04-19T12:28:45.040Z,162.01
2023-04-19T12:29:44.954Z,160.48
2023-04-19T12:30:44.996Z,159.87
2023-04-19T12:31:44.958Z,157.29
2023-04-19T12:32:44.967Z,159.14
2023-04-19T12:33:44.879Z,162.62
2023-04-19T12:34:44.894Z,180.30
2023-04-19T12:35:44.872Z,185.74
2023-04-19T12:36:44.941Z,187.15
2023-04-19T12:37:44.874Z,178.45
2023-04-19T12:38:44.830Z,165.14
2023-04-19T12:39:44.802Z,156.98
2023-04-19T12:40:44.760Z,162.04
2023-04-19T12:41:44.738Z,164.12